Aviation Digital Data Service (ADDS)

Output produced by METARs form (1949 UTC 02 October 2022)
found at http://www.aviationweather.gov/metar/data/
 
METAR text: KGTU 021856Z VRB05KT 10SM CLR 28/06 A3017 RMK AO2 SLP212 T02830056
Conditions at: KGTU (GEORGETOWN , TX, US) observed 1856 UTC 02 October 2022
Temperature: 28.3°C (83°F)
Dewpoint: 5.6°C (42°F) [RH = 24%]
Pressure (altimeter): 30.17 inches Hg (1021.8 mb)
[Sea-level pressure: 1021.2 mb]
Winds: variable direction winds at 6 MPH (5 knots; 2.6 m/s)
Visibility: 10 or more miles (16+ km)
Ceiling: at least 12,000 feet AGL
Clouds: sky clear below 12,000 feet AGL
Weather: no significant weather observed at this time